Cascade Spirit — C6BQ5 — position and weather

sailwx.info

Track history (hours):
 
Tides and Currents Weather Stations Pressure Air Temp Water Temp Dewpoint Dewpoint Depression Visibility Wind Speed Wind Dir Waves Ship Positions

Cascade Spirit

Last reported at 2017-Nov-09 01:59 UTC. Time now 2017-Nov-20 02:11 UTC.
Position N 01°15' E 104°02'.
Warning: this ship's position is 11 days out of date.

Length 275 m; draft 17 m.

Type: Tanker. MMSI: 311000335.

Date/timePositionNaut miles runAvg speedWind from/ knotsBaromVisibWave heightAir tempDewpointWater temp
2017-Nov-09 01:59N 01°15' E 104°02'5 9.8
2017-Nov-09 01:30N 01°14' E 103°58'3 6.8
2017-Nov-09 01:00N 01°14' E 103°54'1 2.0
2017-Nov-09 00:29N 01°14' E 103°53'0 0.1
2017-Nov-08 23:59N 01°14' E 103°53'0 0.0
2017-Nov-08 23:29N 01°14' E 103°53'0 0.0
2017-Nov-08 22:59N 01°14' E 103°53'0 0.0
2017-Nov-08 22:29N 01°14' E 103°53'0 0.1
2017-Nov-08 21:59N 01°14' E 103°53'0 0.0
2017-Nov-08 21:29N 01°14' E 103°53'0 0.0
2017-Nov-08 20:59N 01°14' E 103°53'0 0.0
2017-Nov-08 20:29N 01°14' E 103°53'0 0.0
2017-Nov-08 19:59N 01°14' E 103°53'0 0.1
2017-Nov-08 19:29N 01°14' E 103°53'0 0.0
2017-Nov-08 18:53N 01°14' E 103°53'0 0.0
2017-Nov-08 18:29N 01°14' E 103°53'0 0.0
2017-Nov-08 17:59N 01°14' E 103°53'0 0.0
2017-Nov-08 17:29N 01°14' E 103°53'0 0.0
2017-Nov-08 16:59N 01°14' E 103°53'0 0.1
2017-Nov-08 16:29N 01°14' E 103°53'0 0.0
2017-Nov-08 15:59N 01°14' E 103°53'0 0.2
2017-Nov-08 15:29N 01°14' E 103°53'0 0.2
2017-Nov-08 14:59N 01°14' E 103°53'0 0.1
2017-Nov-08 14:23N 01°14' E 103°53'0 0.0
2017-Nov-08 13:53N 01°14' E 103°53'0 0.2
2017-Nov-08 13:29N 01°14' E 103°53'0 0.2
2017-Nov-08 12:59N 01°14' E 103°53'0 0.3
2017-Nov-08 11:56N 01°14' E 103°53'0 0.1
2017-Nov-08 11:17N 01°14' E 103°53'0 0.2
2017-Nov-08 10:54N 01°14' E 103°53'0 0.1
2017-Nov-08 09:58N 01°14' E 103°53'0 0.0
2017-Nov-08 06:28N 01°14' E 103°53'0 0.3
2017-Nov-08 05:55N 01°14' E 103°53'0 0.2
2017-Nov-08 05:16N 01°14' E 103°53'0 0.0
2017-Nov-08 04:55N 01°14' E 103°53'0 0.1
2017-Nov-08 04:28N 01°14' E 103°53'0 0.5
2017-Nov-08 04:00N 01°14' E 103°53'2 4.0
2017-Nov-08 03:30N 01°14' E 103°55'1 2.1
2017-Nov-08 03:00N 01°13' E 103°56'3 6.3
2017-Nov-08 02:30N 01°12' E 103°53'3 6.6
2017-Nov-08 02:00N 01°11' E 103°50'3 6.2
2017-Nov-08 01:30N 01°10' E 103°47'3 6.3
2017-Nov-08 00:59N 01°07' E 103°45'4 8.7
2017-Nov-08 00:31N 01°05' E 103°41'5 9.4
2017-Nov-07 23:59N 01°04' E 103°37'510.3
2017-Nov-07 23:30N 01°06' E 103°32'610.1
2017-Nov-07 22:57N 01°09' E 103°27'  
Track history (hours):
 
Tides and Currents Weather Stations Pressure Air Temp Water Temp Dewpoint Dewpoint Depression Visibility Wind Speed Wind Dir Waves Ship Positions

Cascade Spirit

Last reported at 2017-Nov-09 01:59 UTC. Time now 2017-Nov-20 02:11 UTC.
Position N 01°15' E 104°02'.
Warning: this ship's position is 11 days out of date.

Length 275 m; draft 17 m.

Type: Tanker. MMSI: 311000335.

Date/timePositionNaut miles runAvg speedWind from/ knotsBaromVisibWave heightAir tempDewpointWater temp
2017-Nov-09 01:59N 01°15' E 104°02'5 9.8
2017-Nov-09 01:30N 01°14' E 103°58'3 6.8
2017-Nov-09 01:00N 01°14' E 103°54'1 2.0
2017-Nov-09 00:29N 01°14' E 103°53'0 0.1
2017-Nov-08 23:59N 01°14' E 103°53'0 0.0
2017-Nov-08 23:29N 01°14' E 103°53'0 0.0
2017-Nov-08 22:59N 01°14' E 103°53'0 0.0
2017-Nov-08 22:29N 01°14' E 103°53'0 0.1
2017-Nov-08 21:59N 01°14' E 103°53'0 0.0
2017-Nov-08 21:29N 01°14' E 103°53'0 0.0
2017-Nov-08 20:59N 01°14' E 103°53'0 0.0
2017-Nov-08 20:29N 01°14' E 103°53'0 0.0
2017-Nov-08 19:59N 01°14' E 103°53'0 0.1
2017-Nov-08 19:29N 01°14' E 103°53'0 0.0
2017-Nov-08 18:53N 01°14' E 103°53'0 0.0
2017-Nov-08 18:29N 01°14' E 103°53'0 0.0
2017-Nov-08 17:59N 01°14' E 103°53'0 0.0
2017-Nov-08 17:29N 01°14' E 103°53'0 0.0
2017-Nov-08 16:59N 01°14' E 103°53'0 0.1
2017-Nov-08 16:29N 01°14' E 103°53'0 0.0
2017-Nov-08 15:59N 01°14' E 103°53'0 0.2
2017-Nov-08 15:29N 01°14' E 103°53'0 0.2
2017-Nov-08 14:59N 01°14' E 103°53'0 0.1
2017-Nov-08 14:23N 01°14' E 103°53'0 0.0
2017-Nov-08 13:53N 01°14' E 103°53'0 0.2
2017-Nov-08 13:29N 01°14' E 103°53'0 0.2
2017-Nov-08 12:59N 01°14' E 103°53'0 0.3
2017-Nov-08 11:56N 01°14' E 103°53'0 0.1
2017-Nov-08 11:17N 01°14' E 103°53'0 0.2
2017-Nov-08 10:54N 01°14' E 103°53'0 0.1
2017-Nov-08 09:58N 01°14' E 103°53'0 0.0
2017-Nov-08 06:28N 01°14' E 103°53'0 0.3
2017-Nov-08 05:55N 01°14' E 103°53'0 0.2
2017-Nov-08 05:16N 01°14' E 103°53'0 0.0
2017-Nov-08 04:55N 01°14' E 103°53'0 0.1
2017-Nov-08 04:28N 01°14' E 103°53'0 0.5
2017-Nov-08 04:00N 01°14' E 103°53'2 4.0
2017-Nov-08 03:30N 01°14' E 103°55'1 2.1
2017-Nov-08 03:00N 01°13' E 103°56'3 6.3
2017-Nov-08 02:30N 01°12' E 103°53'3 6.6
2017-Nov-08 02:00N 01°11' E 103°50'3 6.2
2017-Nov-08 01:30N 01°10' E 103°47'3 6.3
2017-Nov-08 00:59N 01°07' E 103°45'4 8.7
2017-Nov-08 00:31N 01°05' E 103°41'5 9.4
2017-Nov-07 23:59N 01°04' E 103°37'510.3
2017-Nov-07 23:30N 01°06' E 103°32'610.1
2017-Nov-07 22:57N 01°09' E 103°27'  

Dump ship's entire track history